Time;durP1;ratioP1;P1;durP2;ratioP2;P2;SDS_P1;SDS_P2;PMS_P1;PMS_P2;Temp;Humidity;BMP_temperature;BMP_pressure;BME280_temperature;BME280_humidity;BME280_pressure;Samples;Min_cycle;Max_cycle;Signal;HPM_P1;HPM_P2
2023/08/05 00:01:20;;;;;;;6.28;2.08;;;;;;;14.05;100.00;100871.66;5114578;28;20371;-73
2023/08/05 00:04:06;;;;;;;4.50;2.38;;;;;;;14.05;100.00;100874.44;5099403;28;20081;-73
2023/08/05 00:06:52;;;;;;;5.68;2.03;;;;;;;14.00;100.00;100874.53;5095047;28;20044;-73
2023/08/05 00:09:38;;;;;;;4.95;2.30;;;;;;;14.00;100.00;100877.34;5064720;28;20515;-74
2023/08/05 00:12:24;;;;;;;6.47;2.35;;;;;;;13.95;100.00;100881.03;5078124;28;20038;-74
2023/08/05 00:15:10;;;;;;;5.45;2.10;;;;;;;13.95;100.00;100875.44;5084231;28;20063;-73
2023/08/05 00:17:55;;;;;;;5.50;2.10;;;;;;;13.93;100.00;100885.28;5090565;28;20043;-73
2023/08/05 00:20:41;;;;;;;7.10;2.00;;;;;;;13.96;100.00;100876.31;5092510;28;20504;-73
2023/08/05 00:23:27;;;;;;;2.80;1.90;;;;;;;13.94;100.00;100873.81;5116117;28;20047;-72
2023/08/05 00:26:13;;;;;;;6.72;2.00;;;;;;;13.95;100.00;100867.06;5093490;28;20043;-74
2023/08/05 00:28:58;;;;;;;7.65;2.40;;;;;;;13.94;100.00;100859.84;5090609;28;20047;-73
2023/08/05 00:31:44;;;;;;;4.50;1.92;;;;;;;13.93;100.00;100855.41;5086725;28;20484;-73
2023/08/05 00:34:30;;;;;;;3.20;1.88;;;;;;;13.94;100.00;100865.44;5092436;28;20132;-73
2023/08/05 00:37:16;;;;;;;5.70;2.25;;;;;;;13.93;100.00;100863.78;5073921;28;20059;-73
2023/08/05 00:40:03;;;;;;;8.18;2.22;;;;;;;13.95;100.00;100855.91;5088234;28;20400;-73
2023/08/05 00:42:48;;;;;;;5.55;1.90;;;;;;;13.97;100.00;100853.66;5089793;28;20036;-74
2023/08/05 00:45:34;;;;;;;5.45;1.80;;;;;;;13.95;100.00;100855.09;5078459;28;20032;-74
2023/08/05 00:48:22;;;;;;;5.57;2.10;;;;;;;13.93;100.00;100858.22;5074428;28;20114;-74
2023/08/05 00:51:08;;;;;;;4.05;2.10;;;;;;;13.98;100.00;100863.66;5079577;28;20078;-74
2023/08/05 00:53:53;;;;;;;5.28;2.22;;;;;;;13.99;100.00;100864.53;5076096;28;20067;-74
2023/08/05 00:56:39;;;;;;;7.22;2.20;;;;;;;13.98;100.00;100858.09;5094390;28;20085;-74
2023/08/05 00:59:25;;;;;;;6.03;2.50;;;;;;;13.98;100.00;100868.44;5097857;28;20119;-73
2023/08/05 01:02:11;;;;;;;4.40;2.13;;;;;;;13.96;100.00;100854.78;5082261;28;20031;-73
2023/08/05 01:04:56;;;;;;;4.30;2.30;;;;;;;14.01;100.00;100848.25;5081109;28;20122;-73
2023/08/05 01:07:43;;;;;;;4.35;2.20;;;;;;;13.99;100.00;100831.84;5092131;28;20127;-73
2023/08/05 01:10:28;;;;;;;5.95;2.33;;;;;;;14.00;100.00;100841.84;5076727;28;20096;-74
2023/08/05 01:13:14;;;;;;;5.80;2.10;;;;;;;14.02;100.00;100834.00;5061332;28;20115;-73
2023/08/05 01:16:00;;;;;;;3.22;1.85;;;;;;;14.04;100.00;100830.88;5078413;28;20055;-74
2023/08/05 01:18:46;;;;;;;4.75;2.35;;;;;;;14.04;100.00;100840.13;5111979;28;20089;-73
2023/08/05 01:22:05;;;;;;;6.20;2.40;;;;;;;14.02;100.00;100842.38;5082164;28;20024;-74
2023/08/05 01:25:00;;;;;;;6.22;2.22;;;;;;;14.02;100.00;100889.84;5086546;28;20450;-74
2023/08/05 01:27:45;;;;;;;7.82;2.50;;;;;;;14.05;100.00;100903.19;5073533;28;20114;-74
2023/08/05 01:30:32;;;;;;;5.47;2.38;;;;;;;14.05;100.00;100889.22;5072588;28;20137;-74
2023/08/05 01:33:18;;;;;;;6.35;2.35;;;;;;;14.07;100.00;100845.06;5085758;28;20047;-74
2023/08/05 01:36:03;;;;;;;5.78;2.67;;;;;;;14.05;100.00;100822.22;5103919;28;20080;-74
2023/08/05 01:38:49;;;;;;;5.82;2.58;;;;;;;14.05;100.00;100811.03;5076701;28;20098;-74
2023/08/05 01:41:35;;;;;;;6.65;2.28;;;;;;;14.04;100.00;100809.41;5087433;28;20400;-74
2023/08/05 01:44:22;;;;;;;5.60;2.70;;;;;;;14.03;100.00;100813.31;5091109;28;20028;-74
2023/08/05 01:47:07;;;;;;;5.80;2.47;;;;;;;14.04;100.00;100806.59;5066487;28;20035;-74
2023/08/05 01:49:53;;;;;;;5.05;2.53;;;;;;;14.03;100.00;100795.72;5105645;28;20031;-72
2023/08/05 01:52:39;;;;;;;5.70;2.28;;;;;;;14.04;100.00;100792.63;5063891;28;20032;-73
2023/08/05 01:55:25;;;;;;;6.07;2.70;;;;;;;14.02;100.00;100797.69;5095256;28;20034;-73
2023/08/05 01:58:11;;;;;;;6.47;2.90;;;;;;;14.02;100.00;100794.91;5103462;28;20122;-74
2023/08/05 02:00:56;;;;;;;5.45;2.55;;;;;;;14.05;100.00;100788.69;5085398;28;20033;-73
2023/08/05 02:03:42;;;;;;;6.15;2.70;;;;;;;14.00;100.00;100777.63;5082086;28;20106;-73
2023/08/05 02:06:28;;;;;;;7.82;2.80;;;;;;;14.02;100.00;100774.53;5094657;28;20035;-74
2023/08/05 02:09:14;;;;;;;7.43;2.85;;;;;;;14.01;100.00;100754.16;5107547;28;20044;-73
2023/08/05 02:11:59;;;;;;;5.85;2.45;;;;;;;14.00;100.00;100735.75;5087791;28;20352;-73
2023/08/05 02:14:45;;;;;;;4.25;2.58;;;;;;;13.97;100.00;100741.94;5067083;28;20084;-74
2023/08/05 02:17:31;;;;;;;6.13;2.58;;;;;;;13.98;100.00;100751.97;5101652;28;20043;-74
2023/08/05 02:20:17;;;;;;;5.60;2.75;;;;;;;13.98;100.00;100746.38;5083153;28;20032;-74
2023/08/05 02:23:02;;;;;;;6.22;2.70;;;;;;;13.97;100.00;100736.38;5082927;28;20032;-74
2023/08/05 02:25:48;;;;;;;4.88;2.72;;;;;;;13.99;100.00;100717.34;5091064;28;20450;-75
2023/08/05 02:28:34;;;;;;;4.53;2.75;;;;;;;13.93;100.00;100721.38;5076668;28;20468;-74
2023/08/05 02:31:20;;;;;;;7.22;2.70;;;;;;;13.96;100.00;100728.31;5078925;28;20046;-74
2023/08/05 02:34:06;;;;;;;6.18;2.80;;;;;;;13.96;100.00;100725.53;5105436;28;20039;-74
2023/08/05 02:36:51;;;;;;;5.60;3.00;;;;;;;13.97;100.00;100708.44;5119142;28;20118;-74
2023/08/05 02:39:40;;;;;;;8.73;3.30;;;;;;;13.93;100.00;100689.81;5119309;28;20110;-74
2023/08/05 02:42:26;;;;;;;6.40;2.97;;;;;;;13.91;100.00;100698.53;5095449;28;20063;-74
2023/08/05 02:45:12;;;;;;;7.72;3.05;;;;;;;13.91;100.00;100703.28;5074567;28;20032;-74
2023/08/05 02:47:57;;;;;;;5.38;2.65;;;;;;;13.90;100.00;100704.41;5075931;28;20122;-74
2023/08/05 02:50:43;;;;;;;6.95;2.75;;;;;;;13.86;100.00;100701.44;5097776;28;20092;-74
2023/08/05 02:53:29;;;;;;;9.55;3.60;;;;;;;13.84;100.00;100732.44;5078794;28;20046;-74
2023/08/05 02:56:15;;;;;;;8.55;4.05;;;;;;;13.85;100.00;100738.88;5078228;28;20035;-74
2023/08/05 02:59:00;;;;;;;7.30;3.03;;;;;;;13.83;100.00;100741.97;5110111;28;20030;-74
2023/08/05 03:01:46;;;;;;;5.57;3.25;;;;;;;13.82;100.00;100736.69;5081334;28;20063;-74
2023/08/05 03:04:32;;;;;;;8.20;3.20;;;;;;;13.82;100.00;100709.59;5090172;28;20036;-74
2023/08/05 03:07:18;;;;;;;6.65;3.03;;;;;;;13.82;100.00;100698.44;5093913;28;20082;-74
2023/08/05 03:10:04;;;;;;;7.78;3.40;;;;;;;13.82;100.00;100672.50;5079083;28;20484;-74
2023/08/05 03:12:50;;;;;;;5.90;3.47;;;;;;;13.83;100.00;100668.56;5073735;28;20036;-74
2023/08/05 03:15:36;;;;;;;4.50;2.95;;;;;;;13.78;100.00;100666.69;5092307;28;20027;-74
2023/08/05 03:18:22;;;;;;;7.53;3.05;;;;;;;13.78;100.00;100665.88;5118497;28;20385;-74
2023/08/05 03:21:07;;;;;;;5.72;2.90;;;;;;;13.78;100.00;100658.31;5062616;28;20547;-74
2023/08/05 03:23:53;;;;;;;7.60;3.30;;;;;;;13.78;100.00;100671.44;5084120;28;20036;-74
2023/08/05 03:26:39;;;;;;;6.55;3.33;;;;;;;13.77;100.00;100669.81;5083222;28;20028;-74
2023/08/05 03:29:25;;;;;;;7.35;3.08;;;;;;;13.77;100.00;100653.06;5080317;28;20082;-74
2023/08/05 03:32:10;;;;;;;5.50;3.03;;;;;;;13.75;100.00;100631.03;5116329;28;20040;-74
2023/08/05 03:34:56;;;;;;;5.40;3.00;;;;;;;13.73;100.00;100629.69;5087696;28;20085;-73
2023/08/05 03:37:43;;;;;;;6.82;3.08;;;;;;;13.74;100.00;100631.34;5117634;28;20059;-74
2023/08/05 03:40:29;;;;;;;8.65;2.90;;;;;;;13.71;100.00;100637.56;5089279;28;20096;-74
2023/08/05 03:43:15;;;;;;;7.28;3.00;;;;;;;13.75;100.00;100641.38;5090247;28;20060;-74
2023/08/05 03:46:01;;;;;;;9.15;3.20;;;;;;;13.73;100.00;100646.44;5076487;28;20040;-74
2023/08/05 03:48:48;;;;;;;5.22;3.20;;;;;;;13.72;100.00;100639.22;5078103;28;20074;-74
2023/08/05 03:51:34;;;;;;;7.35;3.10;;;;;;;13.72;100.00;100634.44;5077050;28;20036;-75
2023/08/05 03:54:20;;;;;;;7.55;2.95;;;;;;;13.73;100.00;100627.72;5074979;28;20035;-74
2023/08/05 03:57:08;;;;;;;6.90;3.38;;;;;;;13.73;100.00;100624.94;5112972;28;20065;-74
2023/08/05 03:59:56;;;;;;;6.43;3.15;;;;;;;13.75;100.00;100625.44;5075713;28;20101;-74
2023/08/05 04:02:42;;;;;;;7.72;3.33;;;;;;;13.74;100.00;100640.56;5075150;28;20076;-74
2023/08/05 04:05:27;;;;;;;7.43;3.05;;;;;;;13.74;100.00;100636.94;5074738;28;20039;-74
2023/08/05 04:08:13;;;;;;;7.38;2.80;;;;;;;13.73;100.00;100621.31;5077339;28;20078;-75
2023/08/05 04:11:00;;;;;;;7.95;3.10;;;;;;;13.71;100.00;100623.63;5073925;28;20089;-74
2023/08/05 04:13:46;;;;;;;7.28;2.78;;;;;;;13.74;100.00;100614.63;5086346;28;20039;-74
2023/08/05 04:16:31;;;;;;;7.35;3.28;;;;;;;13.74;100.00;100609.03;5079371;28;20078;-74
2023/08/05 04:19:18;;;;;;;6.32;3.08;;;;;;;13.72;100.00;100588.97;5076781;28;20085;-74
2023/08/05 04:22:04;;;;;;;6.47;3.10;;;;;;;13.71;100.00;100590.13;5089846;28;20446;-75
2023/08/05 04:24:51;;;;;;;5.45;3.05;;;;;;;13.72;100.00;100578.63;5076880;28;20038;-74
2023/08/05 04:27:37;;;;;;;8.15;3.13;;;;;;;13.71;100.00;100590.13;5075883;28;20040;-74
2023/08/05 04:30:23;;;;;;;9.27;3.30;;;;;;;13.66;100.00;100590.22;5090717;28;20042;-74
2023/08/05 04:33:10;;;;;;;8.07;3.30;;;;;;;13.71;100.00;100590.94;5094837;28;20369;-76
2023/08/05 04:35:57;;;;;;;6.50;3.13;;;;;;;13.70;100.00;100596.81;5082756;28;20380;-72
2023/08/05 04:38:43;;;;;;;8.18;3.50;;;;;;;13.73;100.00;100597.00;5082737;28;20032;-74
2023/08/05 04:41:29;;;;;;;8.05;3.72;;;;;;;13.72;100.00;100583.38;5086027;28;20035;-74
2023/08/05 04:44:14;;;;;;;9.85;3.50;;;;;;;13.67;100.00;100570.38;5073698;28;20035;-73
2023/08/05 04:47:00;;;;;;;8.23;3.63;;;;;;;13.67;100.00;100570.38;5084127;28;20032;-73
2023/08/05 04:49:46;;;;;;;7.20;3.17;;;;;;;13.68;100.00;100568.41;5111749;28;20415;-74
2023/08/05 04:52:32;;;;;;;6.75;3.75;;;;;;;13.73;100.00;100568.28;5102431;28;20055;-74
2023/08/05 04:55:17;;;;;;;8.93;3.45;;;;;;;13.71;100.00;100571.41;5074188;28;20092;-74
2023/08/05 04:58:03;;;;;;;6.55;3.80;;;;;;;13.68;100.00;100562.81;5095624;28;20042;-73
2023/08/05 05:00:49;;;;;;;7.53;3.35;;;;;;;13.66;100.00;100563.13;5113340;28;20391;-73
2023/08/05 05:03:35;;;;;;;6.07;3.15;;;;;;;13.64;100.00;100555.06;5084023;28;20043;-72
2023/08/05 05:06:21;;;;;;;7.78;3.70;;;;;;;13.67;100.00;100541.63;5083925;28;20028;-73
2023/08/05 05:09:07;;;;;;;7.28;3.35;;;;;;;13.69;100.00;100542.97;5111031;28;20047;-72
2023/08/05 05:11:53;;;;;;;10.80;3.83;;;;;;;13.67;100.00;100533.25;5100020;28;20039;-73
2023/08/05 05:14:46;;;;;;;7.15;3.50;;;;;;;13.66;100.00;100528.84;5079830;28;20551;-73
2023/08/05 05:17:34;;;;;;;7.30;3.50;;;;;;;13.67;100.00;100525.72;5103785;28;20385;-73
2023/08/05 05:20:19;;;;;;;8.55;3.78;;;;;;;13.66;100.00;100526.03;5101242;28;20460;-73
2023/08/05 05:23:05;;;;;;;8.00;3.28;;;;;;;13.67;100.00;100513.72;5077795;28;20031;-75
2023/08/05 05:25:51;;;;;;;8.25;4.00;;;;;;;13.69;100.00;100512.28;5094304;28;20028;-75
2023/08/05 05:28:37;;;;;;;7.20;3.25;;;;;;;13.67;100.00;100503.38;5080884;28;20182;-74
2023/08/05 05:31:24;;;;;;;7.53;3.25;;;;;;;13.71;100.00;100495.22;5095951;28;20051;-74
2023/08/05 05:34:10;;;;;;;9.27;3.50;;;;;;;13.70;100.00;100490.78;5110413;28;20088;-74
2023/08/05 05:36:55;;;;;;;8.25;3.40;;;;;;;13.69;100.00;100480.75;5079215;27;20054;-74
2023/08/05 05:39:41;;;;;;;7.70;3.45;;;;;;;13.70;100.00;100480.44;5094020;27;20035;-73
2023/08/05 05:42:28;;;;;;;6.68;3.30;;;;;;;13.67;100.00;100481.06;5098106;28;20416;-74
2023/08/05 05:45:14;;;;;;;9.02;3.65;;;;;;;13.69;100.00;100484.38;5092286;28;20042;-74
2023/08/05 05:47:59;;;;;;;7.80;3.63;;;;;;;13.76;100.00;100481.13;5115319;28;20039;-73
2023/08/05 05:50:45;;;;;;;7.45;3.30;;;;;;;13.75;100.00;100468.31;5096973;28;20058;-74
2023/08/05 05:53:31;;;;;;;7.82;3.05;;;;;;;13.74;100.00;100466.69;5081744;28;20035;-76
2023/08/05 05:56:18;;;;;;;6.22;3.67;;;;;;;13.76;100.00;100465.22;5090121;28;20035;-74
2023/08/05 05:59:03;;;;;;;6.22;3.03;;;;;;;13.80;100.00;100457.84;5076939;28;20064;-74
2023/08/05 06:01:49;;;;;;;7.38;3.05;;;;;;;13.81;100.00;100439.97;5094881;28;20032;-74
2023/08/05 06:04:36;;;;;;;7.35;3.20;;;;;;;13.83;100.00;100434.06;5089814;28;20036;-74
2023/08/05 06:07:21;;;;;;;7.57;3.40;;;;;;;13.85;100.00;100429.81;5100849;28;20031;-74
2023/08/05 06:10:07;;;;;;;6.38;2.95;;;;;;;13.90;100.00;100434.47;5110997;28;20043;-74
2023/08/05 06:12:53;;;;;;;9.07;3.42;;;;;;;13.94;100.00;100431.84;5084596;28;20493;-74
2023/08/05 06:15:40;;;;;;;6.93;3.60;;;;;;;13.93;100.00;100431.03;5093392;28;20028;-74
2023/08/05 06:18:26;;;;;;;7.68;3.53;;;;;;;13.98;100.00;100430.88;5100227;28;20039;-74
2023/08/05 06:21:11;;;;;;;8.50;3.10;;;;;;;14.00;100.00;100423.00;5079258;28;20075;-74
2023/08/05 06:23:57;;;;;;;8.55;3.50;;;;;;;14.03;100.00;100419.56;5082792;28;20495;-74
2023/08/05 06:26:43;;;;;;;8.38;3.40;;;;;;;14.05;100.00;100420.09;5110543;28;20476;-74
2023/08/05 06:29:29;;;;;;;11.38;3.80;;;;;;;14.07;100.00;100406.63;5067900;28;20115;-75
2023/08/05 06:32:15;;;;;;;7.45;2.80;;;;;;;14.11;100.00;100403.19;5089873;28;20042;-75
2023/08/05 06:35:00;;;;;;;8.90;3.38;;;;;;;14.15;100.00;100404.19;5109108;28;20111;-75
2023/08/05 06:37:46;;;;;;;5.47;2.92;;;;;;;14.15;100.00;100407.00;5099445;28;20110;-75
2023/08/05 06:40:32;;;;;;;7.50;3.38;;;;;;;14.17;100.00;100397.16;5063374;28;20027;-75
2023/08/05 06:43:18;;;;;;;7.45;3.67;;;;;;;14.21;100.00;100398.16;5090848;28;20034;-75
2023/08/05 06:46:04;;;;;;;11.20;4.13;;;;;;;14.26;100.00;100392.44;5096895;28;20028;-75
2023/08/05 06:48:49;;;;;;;13.45;4.18;;;;;;;14.29;100.00;100390.94;5081148;28;20043;-75
2023/08/05 06:51:35;;;;;;;6.65;3.33;;;;;;;14.34;100.00;100392.78;5091343;28;20035;-75
2023/08/05 06:54:21;;;;;;;9.70;3.78;;;;;;;14.39;100.00;100379.50;5096422;28;20032;-74
2023/08/05 06:57:07;;;;;;;7.97;4.00;;;;;;;14.45;100.00;100364.22;5080190;28;20064;-75
2023/08/05 06:59:53;;;;;;;10.85;4.60;;;;;;;14.47;100.00;100364.75;5096467;28;20040;-74
2023/08/05 07:02:38;;;;;;;6.70;3.60;;;;;;;14.54;100.00;100355.91;5089391;28;20242;-75
2023/08/05 07:05:24;;;;;;;8.68;3.60;;;;;;;14.59;100.00;100349.34;5095572;28;20062;-75
2023/08/05 07:08:10;;;;;;;9.38;4.35;;;;;;;14.60;100.00;100345.41;5065263;28;20490;-74
2023/08/05 07:10:56;;;;;;;11.80;4.03;;;;;;;14.62;100.00;100334.72;5092392;28;20045;-74
2023/08/05 07:13:42;;;;;;;10.70;4.75;;;;;;;14.66;100.00;100330.16;5082703;28;20568;-74
2023/08/05 07:16:28;;;;;;;10.13;4.32;;;;;;;14.65;100.00;100315.31;5080978;28;20039;-74
2023/08/05 07:19:14;;;;;;;7.90;4.00;;;;;;;14.68;100.00;100314.69;5100974;28;20036;-74
2023/08/05 07:21:59;;;;;;;8.95;4.22;;;;;;;14.70;100.00;100306.78;5109162;28;20130;-74
2023/08/05 07:24:45;;;;;;;8.10;3.88;;;;;;;14.70;100.00;100306.78;5098615;28;20034;-74
2023/08/05 07:27:31;;;;;;;8.63;3.85;;;;;;;14.73;100.00;100300.53;5103163;28;20041;-74
2023/08/05 07:30:17;;;;;;;6.60;3.90;;;;;;;14.74;100.00;100296.63;5089587;28;20028;-75
2023/08/05 07:33:09;;;;;;;12.18;4.43;;;;;;;14.75;100.00;100303.03;5078540;28;20114;-75
2023/08/05 07:35:56;;;;;;;9.07;3.97;;;;;;;14.76;100.00;100296.25;5080118;28;20039;-74
2023/08/05 07:38:44;;;;;;;8.43;4.10;;;;;;;14.82;100.00;100297.78;5088430;28;20527;-75
2023/08/05 07:41:31;;;;;;;6.60;3.53;;;;;;;14.82;100.00;100285.75;5080228;28;20040;-75
2023/08/05 07:44:16;;;;;;;11.63;4.10;;;;;;;14.80;100.00;100283.28;5094264;28;20031;-74
2023/08/05 07:47:02;;;;;;;10.23;3.88;;;;;;;14.82;100.00;100281.00;5092184;28;20038;-74
2023/08/05 07:49:48;;;;;;;6.05;3.40;;;;;;;14.82;100.00;100275.41;5089242;28;20056;-74
2023/08/05 07:52:35;;;;;;;7.28;3.58;;;;;;;14.78;100.00;100270.78;5074996;28;20449;-74
2023/08/05 07:55:22;;;;;;;6.57;3.85;;;;;;;14.79;100.00;100270.44;5091786;28;20032;-74
2023/08/05 07:58:07;;;;;;;5.38;3.13;;;;;;;14.78;100.00;100254.84;5104831;27;20114;-74
2023/08/05 08:00:56;;;;;;;6.82;3.50;;;;;;;14.77;100.00;100239.22;5100710;28;20084;-74
2023/08/05 08:03:43;;;;;;;9.07;3.30;;;;;;;14.78;100.00;100249.25;5082186;28;20094;-74
2023/08/05 08:06:29;;;;;;;9.07;3.20;;;;;;;14.79;100.00;100242.50;5078708;28;20361;-74
2023/08/05 08:09:14;;;;;;;8.48;3.10;;;;;;;14.78;100.00;100249.25;5105014;28;20043;-75
2023/08/05 08:12:00;;;;;;;6.38;2.92;;;;;;;14.79;100.00;100245.28;5107970;28;20050;-74
2023/08/05 08:14:46;;;;;;;9.05;3.40;;;;;;;14.82;100.00;100241.88;5082313;28;20030;-74
2023/08/05 08:17:32;;;;;;;5.53;2.70;;;;;;;14.82;100.00;100250.25;5082608;28;20055;-74
2023/08/05 08:20:17;;;;;;;6.43;3.30;;;;;;;14.83;100.00;100237.09;5109770;28;20031;-73
2023/08/05 08:23:03;;;;;;;6.30;3.25;;;;;;;14.82;100.00;100232.63;5106485;28;20027;-74
2023/08/05 08:25:49;;;;;;;8.68;3.60;;;;;;;14.84;100.00;100227.53;5102706;28;20232;-74
2023/08/05 08:28:35;;;;;;;9.18;3.63;;;;;;;14.86;100.00;100223.25;5098613;28;20391;-74
2023/08/05 08:31:21;;;;;;;6.63;2.92;;;;;;;14.83;100.00;100207.16;5116830;28;20051;-78
2023/08/05 08:34:06;;;;;;;6.95;3.25;;;;;;;14.85;100.00;100204.00;5083719;28;20072;-77
2023/08/05 08:36:52;;;;;;;8.20;3.42;;;;;;;14.88;100.00;100187.41;5105392;28;20035;-75
2023/08/05 08:39:38;;;;;;;5.20;2.67;;;;;;;14.93;100.00;100175.22;5086853;28;20032;-76
2023/08/05 08:42:25;;;;;;;8.05;3.20;;;;;;;14.97;100.00;100177.03;5079618;28;20031;-75
2023/08/05 08:45:11;;;;;;;8.88;3.10;;;;;;;15.04;100.00;100165.31;5087851;28;20065;-76
2023/08/05 08:47:58;;;;;;;7.43;4.07;;;;;;;15.10;100.00;100164.03;5072311;28;20036;-76
2023/08/05 08:50:44;;;;;;;5.43;3.38;;;;;;;15.17;100.00;100157.91;5088842;28;20030;-76
2023/08/05 08:53:33;;;;;;;7.25;3.28;;;;;;;15.22;100.00;100159.72;5076732;28;20059;-75
2023/08/05 08:56:19;;;;;;;7.10;3.35;;;;;;;15.30;100.00;100162.47;5073895;28;20116;-75
2023/08/05 08:59:05;;;;;;;4.60;2.85;;;;;;;15.36;100.00;100149.94;5094360;28;20403;-75
2023/08/05 09:01:50;;;;;;;6.60;3.38;;;;;;;15.42;100.00;100142.19;5082824;28;20070;-76
2023/08/05 09:04:36;;;;;;;9.77;3.63;;;;;;;15.52;100.00;100144.63;5086870;28;20032;-76
2023/08/05 09:07:24;;;;;;;7.45;3.00;;;;;;;15.60;100.00;100131.72;5096755;28;20056;-76
2023/08/05 09:10:10;;;;;;;7.47;2.95;;;;;;;15.69;100.00;100129.75;5079856;28;20189;-76
2023/08/05 09:13:00;;;;;;;7.32;2.80;;;;;;;15.81;100.00;100137.41;5088517;28;20032;-76
2023/08/05 09:15:46;;;;;;;7.63;2.70;;;;;;;15.90;100.00;100128.97;5075189;28;20031;-75
2023/08/05 09:18:31;;;;;;;4.15;2.20;;;;;;;15.97;100.00;100118.88;5089855;28;20101;-75
2023/08/05 09:21:24;;;;;;;5.07;2.95;;;;;;;16.06;100.00;100111.22;5077123;28;20092;-76
2023/08/05 09:24:10;;;;;;;5.70;2.40;;;;;;;16.16;100.00;100117.56;5100301;28;20042;-75
2023/08/05 09:26:57;;;;;;;5.65;2.30;;;;;;;16.23;100.00;100103.84;5085167;28;20042;-75
2023/08/05 09:29:42;;;;;;;4.72;2.20;;;;;;;16.35;100.00;100105.88;5108638;28;20441;-75
2023/08/05 09:32:28;;;;;;;5.68;2.20;;;;;;;16.44;100.00;100087.03;5079290;28;20035;-75
2023/08/05 09:35:14;;;;;;;3.80;1.90;;;;;;;16.49;100.00;100089.59;5109492;28;20077;-76
2023/08/05 09:38:01;;;;;;;7.03;2.28;;;;;;;16.60;100.00;100095.59;5077991;28;20447;-75
2023/08/05 09:40:49;;;;;;;6.60;2.20;;;;;;;16.68;100.00;100101.09;5083219;28;20088;-75
2023/08/05 09:43:43;;;;;;;4.55;2.10;;;;;;;16.77;100.00;100087.06;5092026;28;20127;-75
2023/08/05 09:46:40;;;;;;;5.38;1.80;;;;;;;16.83;100.00;100077.25;5081935;28;20038;-76
2023/08/05 09:49:28;;;;;;;3.20;1.38;;;;;;;16.90;100.00;100076.69;5112062;28;20035;-76
2023/08/05 09:52:17;;;;;;;3.95;1.40;;;;;;;16.98;100.00;100079.38;5097928;28;20038;-76
2023/08/05 09:55:04;;;;;;;3.20;1.27;;;;;;;17.06;100.00;100083.25;5092671;28;20377;-75
2023/08/05 09:57:50;;;;;;;3.30;1.20;;;;;;;17.14;100.00;100065.50;5081115;28;20411;-75
2023/08/05 10:00:42;;;;;;;3.72;1.05;;;;;;;17.22;100.00;100076.94;5112278;28;20039;-76
2023/08/05 10:03:28;;;;;;;2.90;0.90;;;;;;;17.30;100.00;100053.56;5091173;28;20042;-75
2023/08/05 10:06:15;;;;;;;1.45;0.80;;;;;;;17.38;100.00;100066.66;5105282;28;20047;-76
2023/08/05 10:09:00;;;;;;;3.47;0.77;;;;;;;17.47;100.00;100047.75;5081726;28;20484;-75
2023/08/05 10:11:46;;;;;;;1.67;0.73;;;;;;;17.55;100.00;100034.72;5119751;28;20027;-76
2023/08/05 10:14:32;;;;;;;2.00;0.85;;;;;;;17.63;100.00;100043.03;5087990;28;20377;-76
2023/08/05 10:17:18;;;;;;;2.40;0.80;;;;;;;17.73;100.00;100026.88;5084787;28;20058;-76
2023/08/05 10:20:06;;;;;;;1.88;0.60;;;;;;;17.79;100.00;100026.28;5098607;28;20158;-76
2023/08/05 10:23:03;;;;;;;1.52;0.52;;;;;;;17.92;100.00;100013.06;5066078;28;20055;-76
2023/08/05 10:25:49;;;;;;;3.63;0.65;;;;;;;18.02;100.00;100026.56;5118842;28;20074;-76
2023/08/05 10:28:35;;;;;;;1.17;0.63;;;;;;;18.12;100.00;100019.66;5089093;28;20032;-76
2023/08/05 10:31:25;;;;;;;1.35;0.50;;;;;;;18.22;100.00;100012.69;5118733;28;20074;-75
2023/08/05 10:34:11;;;;;;;1.67;0.65;;;;;;;18.28;100.00;100011.28;5118213;28;20118;-76
2023/08/05 10:36:57;;;;;;;2.67;0.60;;;;;;;18.35;100.00;99988.16;5103131;28;20439;-76
2023/08/05 10:39:43;;;;;;;1.67;0.60;;;;;;;18.42;100.00;100002.44;5103332;28;20057;-76
2023/08/05 10:42:28;;;;;;;1.48;0.60;;;;;;;18.49;100.00;100013.84;5082077;28;20038;-76
2023/08/05 10:45:14;;;;;;;2.53;0.50;;;;;;;18.57;100.00;100009.25;5115055;28;20031;-76
2023/08/05 10:48:00;;;;;;;0.88;0.65;;;;;;;18.61;100.00;100011.00;5096939;28;20092;-75
2023/08/05 10:50:47;;;;;;;1.05;0.50;;;;;;;18.68;100.00;100007.53;5088931;28;20464;-76
2023/08/05 10:53:34;;;;;;;1.98;0.50;;;;;;;18.73;100.00;99999.66;5090914;28;20035;-76
2023/08/05 10:56:20;;;;;;;1.65;0.50;;;;;;;18.83;100.00;99975.81;5088315;28;20032;-76
2023/08/05 10:59:06;;;;;;;3.60;0.55;;;;;;;18.86;100.00;99977.94;5096378;28;20048;-76
2023/08/05 11:01:56;;;;;;;5.00;0.65;;;;;;;18.86;100.00;99963.88;5082005;27;20104;-76
2023/08/05 11:04:41;;;;;;;1.02;0.60;;;;;;;18.93;100.00;99952.78;5102648;28;20042;-76
2023/08/05 11:07:27;;;;;;;1.83;0.57;;;;;;;18.94;100.00;99962.03;5084096;28;20035;-76
2023/08/05 11:10:13;;;;;;;1.50;0.60;;;;;;;19.01;100.00;99965.03;5080955;28;20110;-76
2023/08/05 11:12:59;;;;;;;2.05;0.60;;;;;;;19.05;100.00;99962.28;5102801;28;20035;-76
2023/08/05 11:16:11;;;;;;;2.45;0.65;;;;;;;19.09;100.00;99949.94;5092248;28;20035;-75
2023/08/05 11:18:57;;;;;;;1.73;0.52;;;;;;;19.18;100.00;99952.56;5094477;28;20084;-76
2023/08/05 11:21:44;;;;;;;0.70;0.40;;;;;;;19.28;100.00;99935.13;5110432;28;20035;-76
2023/08/05 11:24:30;;;;;;;1.70;0.63;;;;;;;19.38;100.00;99934.53;5077349;28;20126;-76
2023/08/05 11:27:15;;;;;;;0.93;0.40;;;;;;;19.51;100.00;99945.69;5078505;28;20054;-76
2023/08/05 11:30:15;;;;;;;2.63;0.60;;;;;;;19.64;100.00;99925.47;5089572;28;20028;-75
2023/08/05 11:33:01;;;;;;;1.67;0.45;;;;;;;19.75;100.00;99925.72;5094061;28;20030;-76
2023/08/05 11:35:47;;;;;;;0.80;0.40;;;;;;;19.95;100.00;99928.53;5077890;28;20046;-76
2023/08/05 11:38:33;;;;;;;1.85;0.60;;;;;;;20.14;100.00;99905.94;5074988;28;20065;-76
2023/08/05 11:41:19;;;;;;;1.40;0.38;;;;;;;20.37;100.00;99910.81;5094708;28;20113;-76
2023/08/05 11:44:05;;;;;;;1.40;0.50;;;;;;;20.58;100.00;99905.56;5074777;28;20031;-76
2023/08/05 11:46:51;;;;;;;2.42;0.90;;;;;;;20.81;100.00;99899.94;5101910;28;20050;-76
2023/08/05 11:49:36;;;;;;;1.27;0.50;;;;;;;21.01;100.00;99883.72;5097874;28;20032;-76
2023/08/05 11:52:22;;;;;;;1.50;0.40;;;;;;;21.20;100.00;99886.41;5095032;28;20051;-76
2023/08/05 11:55:08;;;;;;;1.95;0.40;;;;;;;21.40;100.00;99892.78;5090673;28;20039;-76
2023/08/05 11:58:02;;;;;;;1.67;0.40;;;;;;;21.64;100.00;99874.50;5090703;28;20543;-76
2023/08/05 12:00:50;;;;;;;2.42;0.70;;;;;;;21.89;100.00;99871.19;5087668;28;20032;-77
2023/08/05 12:03:36;;;;;;;0.60;0.30;;;;;;;22.12;100.00;99878.69;5101012;28;20039;-76
2023/08/05 12:06:21;;;;;;;0.98;0.40;;;;;;;22.30;100.00;99880.53;5077220;28;20050;-76
2023/08/05 12:09:07;;;;;;;1.17;0.40;;;;;;;22.49;100.00;99893.66;5091807;28;20032;-75
2023/08/05 12:11:56;;;;;;;0.65;0.30;;;;;;;22.63;100.00;99886.50;5095876;28;20502;-76
2023/08/05 12:14:42;;;;;;;1.50;0.40;;;;;;;22.82;100.00;99872.09;5086552;28;20484;-76
2023/08/05 12:17:28;;;;;;;4.63;0.60;;;;;;;23.02;100.00;99866.22;5094051;28;20476;-76
2023/08/05 12:20:27;;;;;;;4.13;0.40;;;;;;;23.20;100.00;99875.63;5095163;28;20028;-76
2023/08/05 12:23:13;;;;;;;3.97;0.70;;;;;;;23.37;100.00;99879.75;5070698;28;20484;-76
2023/08/05 12:25:58;;;;;;;3.85;0.60;;;;;;;23.53;100.00;99879.44;5074012;28;20032;-76
2023/08/05 12:28:44;;;;;;;7.80;0.90;;;;;;;23.74;100.00;99882.41;5088563;28;20079;-76
2023/08/05 12:31:32;;;;;;;6.65;1.08;;;;;;;23.92;100.00;99870.31;5116543;28;20114;-76
2023/08/05 12:34:18;;;;;;;8.35;1.42;;;;;;;24.11;100.00;99874.84;5080563;28;20032;-76
2023/08/05 12:37:04;;;;;;;6.55;1.40;;;;;;;24.33;100.00;99884.22;5102610;28;20057;-76
2023/08/05 12:39:49;;;;;;;6.00;1.30;;;;;;;24.52;100.00;99881.81;5093030;28;20035;-76
2023/08/05 12:42:35;;;;;;;8.00;1.48;;;;;;;24.73;100.00;99886.69;5097882;28;20039;-76
2023/08/05 12:45:21;;;;;;;8.57;1.80;;;;;;;24.93;100.00;99900.47;5067035;28;20036;-76
2023/08/05 12:48:07;;;;;;;8.93;1.98;;;;;;;25.09;100.00;99891.53;5111584;28;20032;-76